Time;durP1;ratioP1;P1;durP2;ratioP2;P2;SDS_P1;SDS_P2;PMS_P1;PMS_P2;Temp;Humidity;BMP_temperature;BMP_pressure;BME280_temperature;BME280_humidity;BME280_pressure;Samples;Min_cycle;Max_cycle;Signal;HPM_P1;HPM_P2
2023/10/16 00:01:28;;;;;;;6.13;3.40;;;;;;;3.58;100.00;101675.47;6051150;23;21072;-73
2023/10/16 00:03:58;;;;;;;4.38;4.18;;;;;;;4.05;100.00;101753.84;6071539;23;20022;-73
2023/10/16 00:06:24;;;;;;;3.42;3.25;;;;;;;3.72;100.00;101696.13;6053419;23;20041;-73
2023/10/16 00:08:59;;;;;;;3.33;3.10;;;;;;;3.96;100.00;101741.81;6076872;23;20044;-72
2023/10/16 00:11:26;;;;;;;2.90;2.80;;;;;;;3.49;100.00;101678.09;6084075;23;20041;-73
2023/10/16 00:13:56;;;;;;;10.07;5.45;;;;;;;3.56;100.00;101697.97;6074383;23;20452;-72
2023/10/16 00:16:23;;;;;;;3.00;2.90;;;;;;;3.74;100.00;101738.50;6042726;23;20041;-73
2023/10/16 00:18:53;;;;;;;4.03;3.72;;;;;;;3.28;100.00;101667.00;6053886;23;20015;-73
2023/10/16 00:21:19;;;;;;;3.17;3.08;;;;;;;3.70;100.00;101703.91;6075386;23;20542;-73
2023/10/16 00:23:46;;;;;;;4.38;4.13;;;;;;;4.05;100.00;101754.75;6084812;23;20029;-73
2023/10/16 00:26:22;;;;;;;3.30;3.20;;;;;;;3.98;100.00;101729.66;6056667;23;20475;-72
2023/10/16 00:29:02;;;;;;;3.40;3.20;;;;;;;3.81;100.00;101703.84;6047409;23;20089;-73
2023/10/16 00:31:32;;;;;;;3.00;2.90;;;;;;;4.05;100.00;101739.16;6083549;23;20022;-72
2023/10/16 00:33:59;;;;;;;3.53;3.08;;;;;;;3.05;100.00;101553.06;6059843;23;20297;-74
2023/10/16 00:36:26;;;;;;;3.72;3.08;;;;;;;4.25;100.00;101738.09;6058896;23;20018;-73
2023/10/16 00:38:52;;;;;;;3.40;3.13;;;;;;;3.64;100.00;101633.88;6081886;23;20345;-72
2023/10/16 00:41:23;;;;;;;3.28;3.08;;;;;;;4.18;100.00;101721.72;6058832;23;20026;-74
2023/10/16 00:43:50;;;;;;;4.15;3.95;;;;;;;3.67;100.00;101635.59;6081101;23;20029;-72
2023/10/16 00:46:32;;;;;;;3.47;3.28;;;;;;;4.08;100.00;101705.34;6054806;23;20026;-74
2023/10/16 00:48:59;;;;;;;3.50;3.30;;;;;;;4.02;100.00;101704.53;6048780;23;20091;-72
2023/10/16 00:51:27;;;;;;;3.15;2.95;;;;;;;3.77;100.00;101697.81;6054405;23;20250;-72
2023/10/16 00:54:28;;;;;;;3.20;3.10;;;;;;;4.18;100.00;101732.09;6078315;23;20033;-73
2023/10/16 00:57:00;;;;;;;3.15;3.05;;;;;;;3.56;100.00;101646.91;6025872;23;20070;-71
2023/10/16 00:59:28;;;;;;;2.85;2.75;;;;;;;4.05;100.00;101707.97;6072180;23;20022;-72
2023/10/16 01:04:40;;;;;;;2.78;2.67;;;;;;;3.47;100.00;101617.56;6077873;23;20480;-74
2023/10/16 01:07:08;;;;;;;3.10;2.90;;;;;;;3.86;100.00;101676.09;6043697;23;20053;-72
2023/10/16 01:09:35;;;;;;;3.58;3.40;;;;;;;3.62;100.00;101624.41;6060563;23;20030;-74
2023/10/16 01:12:07;;;;;;;3.35;3.15;;;;;;;3.93;100.00;101690.75;6043600;23;20018;-72
2023/10/16 01:14:35;;;;;;;3.10;2.85;;;;;;;3.75;100.00;101654.56;6049437;23;20057;-74
2023/10/16 01:17:03;;;;;;;2.85;2.75;;;;;;;3.79;100.00;101664.91;6075957;23;20413;-72
2023/10/16 01:19:29;;;;;;;3.10;3.00;;;;;;;4.19;100.00;101687.06;6029691;23;20459;-73
2023/10/16 01:21:58;;;;;;;3.58;3.42;;;;;;;3.51;100.00;101627.94;6078335;23;20022;-73
2023/10/16 01:24:27;;;;;;;2.92;2.83;;;;;;;3.25;100.00;101606.50;6078661;23;20332;-74
2023/10/16 01:27:01;;;;;;;3.17;3.03;;;;;;;3.05;100.00;101573.81;6089562;23;20460;-73
2023/10/16 01:29:28;;;;;;;2.70;2.60;;;;;;;3.23;100.00;101601.34;6050113;23;20022;-73
2023/10/16 01:31:54;;;;;;;3.55;3.45;;;;;;;3.49;100.00;101653.03;6051129;23;20055;-73
2023/10/16 01:34:22;;;;;;;3.00;2.90;;;;;;;3.63;100.00;101675.41;6050860;23;20469;-71
2023/10/16 01:36:51;;;;;;;2.78;2.67;;;;;;;3.67;100.00;101680.59;6066168;23;20033;-72
2023/10/16 01:42:11;;;;;;;3.17;3.03;;;;;;;3.51;100.00;101640.91;6068935;23;20041;-73
2023/10/16 01:44:43;;;;;;;3.10;3.00;;;;;;;3.46;100.00;101636.63;6057620;23;20347;-72
2023/10/16 01:47:15;;;;;;;3.00;2.90;;;;;;;3.44;100.00;101623.66;6054788;23;20281;-71
2023/10/16 01:49:43;;;;;;;3.17;3.07;;;;;;;2.87;100.00;101558.38;6069954;23;20033;-73
2023/10/16 01:52:12;;;;;;;3.00;2.90;;;;;;;2.94;100.00;101585.97;6074582;23;20023;-72
2023/10/16 01:54:40;;;;;;;3.05;2.92;;;;;;;2.99;100.00;101607.56;6077325;23;20083;-75
2023/10/16 01:57:10;;;;;;;3.00;2.80;;;;;;;2.83;100.00;101611.97;6076228;23;20037;-73
2023/10/16 01:59:43;;;;;;;3.70;3.50;;;;;;;3.15;100.00;101667.97;6078271;23;20042;-72
2023/10/16 02:02:11;;;;;;;3.35;3.15;;;;;;;3.14;100.00;101654.13;6075583;23;20021;-72
2023/10/16 02:04:38;;;;;;;3.30;3.10;;;;;;;3.64;100.00;101710.91;6044598;23;20010;-71
2023/10/16 02:07:06;;;;;;;3.00;2.80;;;;;;;3.56;100.00;101679.81;6049608;23;20270;-72
2023/10/16 02:09:36;;;;;;;3.17;3.08;;;;;;;3.71;100.00;101684.88;6073687;23;20043;-73
2023/10/16 02:12:05;;;;;;;2.85;2.75;;;;;;;3.59;100.00;101620.94;6070029;23;20281;-72
2023/10/16 02:14:37;;;;;;;3.20;3.10;;;;;;;3.73;100.00;101636.41;6048250;18;20036;-70
2023/10/16 02:17:04;;;;;;;3.28;3.17;;;;;;;3.95;100.00;101625.84;6051027;23;20038;-69
2023/10/16 02:19:31;;;;;;;3.45;3.25;;;;;;;3.66;100.00;101575.03;6081471;23;20109;-70
2023/10/16 02:21:58;;;;;;;4.80;4.60;;;;;;;4.22;100.00;101629.88;6058811;23;20081;-71
2023/10/16 02:24:25;;;;;;;4.25;3.95;;;;;;;3.99;100.00;101617.13;6047502;23;20045;-70
2023/10/16 02:27:00;;;;;;;3.70;3.47;;;;;;;3.82;100.00;101619.88;6040624;23;20033;-70
2023/10/16 02:29:31;;;;;;;3.10;3.00;;;;;;;3.89;100.00;101633.66;6046089;23;20027;-69
2023/10/16 02:32:03;;;;;;;4.22;4.03;;;;;;;3.48;100.00;101573.47;6035398;23;20022;-72
2023/10/16 02:34:33;;;;;;;3.20;3.10;;;;;;;3.59;100.00;101644.31;6050060;23;20027;-71
2023/10/16 02:37:06;;;;;;;3.35;3.22;;;;;;;3.65;100.00;101652.91;6041637;23;20508;-69
2023/10/16 02:39:41;;;;;;;3.42;3.28;;;;;;;3.55;100.00;101660.78;6022348;23;20022;-70
2023/10/16 02:42:14;;;;;;;4.35;4.05;;;;;;;3.76;100.00;101666.66;6041986;23;20041;-69
2023/10/16 02:44:49;;;;;;;3.40;3.13;;;;;;;3.68;100.00;101655.50;6043805;23;20516;-70
2023/10/16 02:47:27;;;;;;;3.55;3.35;;;;;;;3.65;100.00;101673.66;6039115;23;20034;-71
2023/10/16 02:49:56;;;;;;;5.90;5.50;;;;;;;3.47;100.00;101659.97;6019491;23;20490;-70
2023/10/16 02:52:23;;;;;;;3.75;3.55;;;;;;;3.45;100.00;101666.91;6041552;23;20082;-70
2023/10/16 02:54:49;;;;;;;4.07;3.88;;;;;;;3.36;100.00;101673.00;6023455;23;20026;-68
2023/10/16 02:57:16;;;;;;;4.30;4.00;;;;;;;3.34;100.00;101689.47;6041169;23;20125;-70
2023/10/16 02:59:43;;;;;;;4.47;4.28;;;;;;;3.47;100.00;101698.91;6049114;23;20030;-70
2023/10/16 03:02:17;;;;;;;4.05;3.85;;;;;;;3.34;100.00;101697.25;6043235;23;20014;-70
2023/10/16 03:04:48;;;;;;;3.97;3.78;;;;;;;3.16;100.00;101680.06;6051434;23;20026;-70
2023/10/16 03:07:15;;;;;;;3.40;3.28;;;;;;;3.12;100.00;101665.38;6034170;23;20034;-71
2023/10/16 03:09:43;;;;;;;3.67;3.53;;;;;;;2.67;100.00;101606.00;6045372;23;20053;-70
2023/10/16 03:12:10;;;;;;;4.15;3.55;;;;;;;3.30;100.00;101705.91;6042460;23;20022;-71
2023/10/16 03:14:46;;;;;;;5.47;3.78;;;;;;;3.01;100.00;101655.09;6020246;23;20038;-71
2023/10/16 03:17:34;;;;;;;3.10;3.00;;;;;;;2.90;100.00;101646.50;6042889;23;20021;-71
2023/10/16 03:20:07;;;;;;;4.30;3.88;;;;;;;3.10;100.00;101661.94;6046306;23;20025;-71
2023/10/16 03:22:34;;;;;;;3.92;3.72;;;;;;;3.57;100.00;101713.53;6050369;23;20027;-71
2023/10/16 03:25:00;;;;;;;3.72;3.53;;;;;;;3.51;100.00;101682.44;6019290;23;20019;-70
2023/10/16 03:27:28;;;;;;;3.85;3.65;;;;;;;3.43;100.00;101683.34;5997448;23;20027;-71
2023/10/16 03:29:56;;;;;;;5.07;4.78;;;;;;;3.02;100.00;101611.84;6050818;23;20053;-71
2023/10/16 03:32:28;;;;;;;3.78;3.55;;;;;;;3.42;100.00;101682.50;6042141;23;20035;-71
2023/10/16 03:34:57;;;;;;;3.78;3.47;;;;;;;2.75;100.00;101567.09;6052424;23;20022;-70
2023/10/16 03:37:24;;;;;;;3.75;3.55;;;;;;;3.15;100.00;101657.59;6045333;23;20108;-71
2023/10/16 03:39:56;;;;;;;5.03;4.70;;;;;;;3.36;100.00;101696.34;6022045;23;20015;-69
2023/10/16 03:42:23;;;;;;;4.00;3.80;;;;;;;3.09;100.00;101663.69;6040187;23;20019;-71
2023/10/16 03:44:49;;;;;;;4.10;3.90;;;;;;;3.34;100.00;101713.66;6050036;23;20030;-72
2023/10/16 03:47:16;;;;;;;4.05;3.85;;;;;;;3.32;100.00;101705.03;6045219;23;20030;-71
2023/10/16 03:49:43;;;;;;;4.65;4.38;;;;;;;3.25;100.00;101694.69;6051652;23;20113;-72
2023/10/16 03:52:11;;;;;;;3.70;3.50;;;;;;;3.33;100.00;101722.34;6050186;23;20032;-72
2023/10/16 03:54:39;;;;;;;4.32;3.65;;;;;;;3.37;100.00;101724.03;6027298;23;20037;-72
2023/10/16 03:57:12;;;;;;;3.60;3.40;;;;;;;2.42;100.00;101550.84;6038577;23;20026;-70
2023/10/16 03:59:43;;;;;;;4.20;4.03;;;;;;;3.57;100.00;101723.91;6050782;23;20085;-72
2023/10/16 04:02:19;;;;;;;3.70;3.50;;;;;;;3.32;100.00;101680.84;6013887;23;20057;-70
2023/10/16 04:04:53;;;;;;;3.33;3.10;;;;;;;3.45;100.00;101717.94;6049050;23;20033;-71
2023/10/16 04:07:22;;;;;;;4.00;3.80;;;;;;;3.69;100.00;101714.31;6052674;23;20642;-70
2023/10/16 04:09:49;;;;;;;4.78;4.50;;;;;;;3.42;100.00;101632.34;6039051;23;20111;-70
2023/10/16 04:12:21;;;;;;;4.32;4.07;;;;;;;3.99;100.00;101693.31;6043957;23;20029;-72
2023/10/16 04:14:55;;;;;;;5.03;4.72;;;;;;;3.86;100.00;101668.31;6047122;23;20045;-71
2023/10/16 04:17:26;;;;;;;4.00;3.80;;;;;;;3.62;100.00;101660.72;6027029;23;20458;-72
2023/10/16 04:19:53;;;;;;;6.07;5.78;;;;;;;3.57;100.00;101661.63;6036736;23;20030;-69
2023/10/16 04:22:23;;;;;;;3.92;3.72;;;;;;;3.76;100.00;101683.09;6027626;23;20026;-72
2023/10/16 04:24:54;;;;;;;3.85;3.65;;;;;;;3.58;100.00;101646.91;6041578;23;20024;-72
2023/10/16 04:27:33;;;;;;;3.40;3.30;;;;;;;3.59;100.00;101651.25;6049069;23;20034;-72
2023/10/16 04:30:32;;;;;;;3.58;3.47;;;;;;;3.59;100.00;101664.22;6042146;23;20034;-73
2023/10/16 04:39:49;;;;;;;3.83;3.63;;;;;;;3.63;100.00;101659.84;6041398;23;20654;-73
2023/10/16 04:46:55;;;;;;;5.00;4.28;;;;;;;3.51;100.00;101609.78;6038414;23;20079;-72
2023/10/16 04:49:16;;;;;;;3.85;3.60;;;;;;;3.57;100.00;101604.53;6053630;23;20041;-72
2023/10/16 04:51:52;;;;;;;4.45;4.18;;;;;;;2.70;100.00;101463.44;6038916;23;20050;-72
2023/10/16 04:54:45;;;;;;;4.05;3.83;;;;;;;3.44;100.00;101582.13;6053502;23;20082;-72
2023/10/16 04:59:59;;;;;;;3.97;3.67;;;;;;;2.74;100.00;101504.00;6051332;23;20036;-73
2023/10/16 05:02:40;;;;;;;3.92;3.72;;;;;;;2.84;100.00;101563.56;6040799;23;20030;-72
2023/10/16 05:11:23;;;;;;;3.63;3.42;;;;;;;2.80;100.00;101611.97;6046331;23;20022;-72
2023/10/16 05:13:41;;;;;;;3.83;3.53;;;;;;;2.46;100.00;101557.72;6041185;23;20068;-73
2023/10/16 06:14:12;;;;;;;4.75;4.03;;;;;;;2.87;100.00;101711.34;6035037;23;20023;-71
2023/10/16 06:16:43;;;;;;;3.78;3.58;;;;;;;2.89;100.00;101717.38;6042152;23;20089;-72
2023/10/16 06:19:19;;;;;;;4.55;4.15;;;;;;;2.81;100.00;101699.25;6051447;23;20022;-73
2023/10/16 06:21:46;;;;;;;9.18;5.10;;;;;;;3.01;100.00;101725.09;6038368;23;20046;-73
2023/10/16 06:24:32;;;;;;;3.88;3.58;;;;;;;2.78;100.00;101650.84;6050580;23;20029;-72
2023/10/16 06:27:01;;;;;;;5.68;4.47;;;;;;;2.98;100.00;101722.50;6035611;23;20026;-73
2023/10/16 06:29:34;;;;;;;6.43;6.03;;;;;;;3.23;100.00;101737.94;6014162;23;20041;-74
2023/10/16 06:32:18;;;;;;;6.22;4.45;;;;;;;2.71;100.00;101636.22;6040761;23;20649;-73
2023/10/16 06:35:01;;;;;;;4.60;4.30;;;;;;;2.62;100.00;101627.63;6047469;23;20036;-73
2023/10/16 06:37:31;;;;;;;3.65;3.45;;;;;;;2.67;100.00;101633.66;6043379;23;20447;-73
2023/10/16 06:40:00;;;;;;;4.93;4.63;;;;;;;3.21;100.00;101722.41;6008447;23;20204;-73
2023/10/16 06:42:28;;;;;;;3.72;3.53;;;;;;;3.33;100.00;101739.66;6044193;23;20036;-74
2023/10/16 06:44:54;;;;;;;3.50;3.30;;;;;;;3.38;100.00;101741.31;6033688;23;20023;-74
2023/10/16 06:47:41;;;;;;;4.60;4.15;;;;;;;3.68;100.00;101767.97;6020375;23;20042;-73
2023/10/16 06:53:01;;;;;;;5.40;5.00;;;;;;;3.56;100.00;101731.72;6045497;23;20094;-73
2023/10/16 06:55:28;;;;;;;4.47;4.18;;;;;;;2.96;100.00;101652.50;6040086;23;20030;-73
2023/10/16 06:57:54;;;;;;;5.35;5.10;;;;;;;3.20;100.00;101685.22;6037858;23;20019;-74
2023/10/16 07:00:27;;;;;;;5.18;4.65;;;;;;;3.02;100.00;101641.22;6042074;23;20104;-74
2023/10/16 07:02:56;;;;;;;4.03;3.83;;;;;;;3.73;100.00;101757.56;6035089;23;20466;-73
2023/10/16 07:05:23;;;;;;;4.50;4.20;;;;;;;3.75;100.00;101763.63;6046702;23;20685;-73
2023/10/16 07:07:52;;;;;;;5.90;5.55;;;;;;;3.63;100.00;101719.53;6007921;23;20042;-73
2023/10/16 07:10:18;;;;;;;3.88;3.67;;;;;;;3.87;100.00;101760.94;6020097;23;20098;-74
2023/10/16 07:12:58;;;;;;;3.95;3.75;;;;;;;3.74;100.00;101728.13;6020843;23;20026;-74
2023/10/16 07:15:28;;;;;;;4.32;4.03;;;;;;;3.25;100.00;101653.19;6018293;23;20034;-74
2023/10/16 07:18:05;;;;;;;5.82;5.47;;;;;;;3.96;100.00;101763.44;5990713;23;20137;-74
2023/10/16 07:20:34;;;;;;;4.00;3.70;;;;;;;2.65;100.00;101530.00;6017103;23;20705;-74
2023/10/16 07:23:01;;;;;;;4.28;3.97;;;;;;;4.18;100.00;101771.06;5994714;23;20571;-73
2023/10/16 07:28:33;;;;;;;4.05;3.85;;;;;;;4.08;100.00;101753.84;5852028;24;20043;-73
2023/10/16 07:31:02;;;;;;;4.00;3.80;;;;;;;3.77;100.00;101677.06;5995247;23;20022;-73
2023/10/16 07:33:29;;;;;;;5.60;5.15;;;;;;;4.39;100.00;101776.09;6017745;23;20058;-74
2023/10/16 07:35:59;;;;;;;6.78;6.25;;;;;;;4.36;100.00;101765.69;5988936;23;20329;-72
2023/10/16 07:38:27;;;;;;;6.30;4.40;;;;;;;4.19;100.00;101726.03;6017821;23;20109;-73
2023/10/16 07:40:58;;;;;;;5.00;4.38;;;;;;;4.55;100.00;101756.00;5995232;23;20043;-70
2023/10/16 07:43:29;;;;;;;3.83;3.63;;;;;;;4.50;100.00;101767.31;6019662;23;20035;-71
2023/10/16 07:46:31;;;;;;;5.90;5.60;;;;;;;4.50;100.00;101762.13;5987937;23;20093;-73
2023/10/16 07:49:09;;;;;;;5.30;4.83;;;;;;;4.33;100.00;101729.38;6019653;23;20030;-73
2023/10/16 07:51:36;;;;;;;3.70;3.50;;;;;;;4.58;100.00;101739.50;6019974;23;20390;-71
2023/10/16 07:54:07;;;;;;;8.45;4.40;;;;;;;4.81;100.00;101765.25;6021715;23;20023;-71
2023/10/16 07:56:38;;;;;;;4.72;4.43;;;;;;;4.97;100.00;101764.22;5998264;23;20074;-73
2023/10/16 07:59:08;;;;;;;4.30;4.00;;;;;;;4.81;100.00;101757.44;6022014;23;20030;-73
2023/10/16 08:01:52;;;;;;;4.97;4.57;;;;;;;4.58;100.00;101747.31;6026877;23;20488;-73
2023/10/16 08:04:19;;;;;;;4.68;4.40;;;;;;;4.59;100.00;101754.22;6028572;23;20027;-70
2023/10/16 08:06:47;;;;;;;6.03;5.45;;;;;;;3.60;100.00;101573.34;6023339;23;20049;-73
2023/10/16 08:11:57;;;;;;;7.88;7.10;;;;;;;4.32;100.00;101674.81;6021182;23;20046;-72
2023/10/16 08:14:26;;;;;;;6.78;6.38;;;;;;;4.87;100.00;101788.63;6019986;23;22725;-73
2023/10/16 08:17:13;;;;;;;5.65;5.25;;;;;;;3.96;100.00;101651.75;6045363;23;20735;-72
2023/10/16 08:19:49;;;;;;;8.35;5.57;;;;;;;4.77;100.00;101798.25;6039348;23;20030;-72
2023/10/16 08:22:16;;;;;;;6.75;6.10;;;;;;;4.66;100.00;101763.69;6047750;23;20077;-72
2023/10/16 08:24:59;;;;;;;8.18;5.50;;;;;;;3.78;100.00;101571.44;6048088;23;20475;-72
2023/10/16 08:27:47;;;;;;;6.10;5.60;;;;;;;5.36;100.00;101815.78;6039525;23;20018;-72
2023/10/16 08:33:07;;;;;;;8.05;6.38;;;;;;;5.34;100.00;101804.53;6038715;23;20030;-72
2023/10/16 08:35:41;;;;;;;8.13;6.28;;;;;;;5.31;100.00;101802.84;6046570;23;20440;-72
2023/10/16 08:38:14;;;;;;;6.43;5.80;;;;;;;5.56;100.00;101811.19;6040353;23;20159;-72
2023/10/16 08:40:44;;;;;;;8.25;7.50;;;;;;;5.69;100.00;101811.00;6050413;23;20007;-72
2023/10/16 08:43:17;;;;;;;12.98;8.07;;;;;;;5.69;100.00;101772.81;6039101;23;20026;-73
2023/10/16 08:45:48;;;;;;;8.52;7.72;;;;;;;6.39;100.00;101786.50;6038441;23;20696;-72
2023/10/16 08:48:17;;;;;;;7.60;6.95;;;;;;;6.73;100.00;101813.72;6050381;23;20685;-73
2023/10/16 08:50:52;;;;;;;8.77;5.85;;;;;;;6.88;100.00;101765.63;6044114;23;20041;-72
2023/10/16 08:57:00;;;;;;;6.65;6.05;;;;;;;6.60;100.00;101700.94;6032862;23;20029;-73
2023/10/16 08:59:26;;;;;;;6.97;6.15;;;;;;;7.02;100.00;101732.28;6043787;23;20402;-73
2023/10/16 09:01:55;;;;;;;9.02;8.15;;;;;;;7.21;100.00;101724.03;6019269;23;20639;-73
2023/10/16 09:04:25;;;;;;;8.30;7.50;;;;;;;7.44;100.00;101731.34;6041093;23;20030;-74
2023/10/16 09:06:52;;;;;;;6.80;6.18;;;;;;;7.71;100.00;101725.50;6019908;23;20022;-72
2023/10/16 09:09:20;;;;;;;6.90;6.32;;;;;;;7.69;100.00;101714.22;6041176;23;20092;-73
2023/10/16 09:12:14;;;;;;;7.82;7.13;;;;;;;7.81;100.00;101705.25;6039576;23;20026;-73
2023/10/16 09:14:40;;;;;;;7.17;6.63;;;;;;;8.03;100.00;101696.88;6035619;23;20096;-73
2023/10/16 09:17:19;;;;;;;7.80;6.65;;;;;;;8.26;100.00;101691.03;6023218;23;20299;-73
2023/10/16 09:19:50;;;;;;;7.28;6.68;;;;;;;8.27;100.00;101671.84;6037275;23;20102;-73
2023/10/16 09:22:35;;;;;;;7.60;6.93;;;;;;;8.43;100.00;101661.84;6021125;23;20026;-73
2023/10/16 09:25:02;;;;;;;8.00;6.50;;;;;;;8.77;100.00;101675.69;6052645;23;20198;-73
2023/10/16 09:27:30;;;;;;;7.53;6.78;;;;;;;8.10;100.00;101538.97;6021755;23;20030;-73
2023/10/16 09:29:58;;;;;;;10.30;9.30;;;;;;;8.78;100.00;101609.34;6032462;23;20955;-73
2023/10/16 09:32:36;;;;;;;7.88;7.07;;;;;;;8.88;100.00;101585.50;6036409;23;20033;-72
2023/10/16 09:35:11;;;;;;;7.00;6.40;;;;;;;8.41;100.00;101496.22;6051843;23;20041;-71
2023/10/16 09:37:38;;;;;;;;;;;;;;;9.01;100.00;101565.91;6041200;23;20031;-71
2023/10/16 09:40:08;;;;;;;8.02;7.32;;;;;;;8.76;100.00;101518.72;6044956;23;19933;-71
2023/10/16 09:43:08;;;;;;;7.00;6.30;;;;;;;8.59;100.00;101487.81;6038959;23;20030;-72
2023/10/16 09:45:36;;;;;;;8.07;6.90;;;;;;;8.79;100.00;101535.16;6041302;23;21043;-72
2023/10/16 09:48:08;;;;;;;7.95;7.18;;;;;;;8.61;100.00;101514.78;6034952;23;20116;-72
2023/10/16 09:50:38;;;;;;;;;;;;;;;8.84;100.00;101557.72;6044854;23;20026;-72
2023/10/16 09:53:08;;;;;;;7.72;6.82;;;;;;;8.77;100.00;101543.97;6049878;23;19917;-73
2023/10/16 09:55:44;;;;;;;10.32;7.65;;;;;;;8.49;100.00;101491.63;6024015;23;20033;-74
2023/10/16 09:58:12;;;;;;;8.00;7.30;;;;;;;8.48;100.00;101482.06;5999252;23;20027;-73
2023/10/16 10:00:40;;;;;;;12.18;7.75;;;;;;;8.47;100.00;101506.53;6044562;23;20080;-73
2023/10/16 10:03:08;;;;;;;6.43;5.88;;;;;;;8.48;100.00;101496.03;6047316;23;20037;-73
2023/10/16 10:05:49;;;;;;;8.77;7.47;;;;;;;8.25;100.00;101460.06;6037021;23;20054;-73
2023/10/16 10:08:27;;;;;;;6.75;6.05;;;;;;;8.57;100.00;101487.00;6034645;23;20029;-73
2023/10/16 10:11:27;;;;;;;6.45;5.93;;;;;;;8.15;100.00;101414.19;6043917;23;20834;-73
2023/10/16 10:14:26;;;;;;;8.68;7.97;;;;;;;8.93;100.00;101508.53;6039657;23;20096;-73
2023/10/16 10:17:00;;;;;;;8.38;7.40;;;;;;;9.15;100.00;101492.97;6045123;23;20081;-73
2023/10/16 10:19:39;;;;;;;8.25;7.45;;;;;;;9.44;100.00;101519.97;6046095;23;20038;-73
2023/10/16 10:22:22;;;;;;;11.15;7.38;;;;;;;9.08;100.00;101433.00;6012007;23;20071;-73
2023/10/16 10:25:22;;;;;;;9.55;6.75;;;;;;;9.30;100.00;101460.19;6046211;23;20037;-73
2023/10/16 10:27:49;;;;;;;9.07;8.18;;;;;;;9.34;100.00;101432.09;6036102;23;20090;-73
2023/10/16 10:30:17;;;;;;;7.10;6.50;;;;;;;9.48;100.00;101449.97;6043506;23;20036;-73
2023/10/16 10:32:51;;;;;;;7.90;7.18;;;;;;;8.97;100.00;101350.47;6021382;23;20135;-73
2023/10/16 10:35:29;;;;;;;10.50;9.20;;;;;;;9.25;100.00;101348.63;6045051;23;20037;-73
2023/10/16 10:38:21;;;;;;;13.68;9.45;;;;;;;9.77;100.00;101415.69;6042904;23;20477;-73
2023/10/16 10:41:09;;;;;;;13.50;8.25;;;;;;;9.57;100.00;101343.06;6026578;23;20027;-73
2023/10/16 10:43:47;;;;;;;6.95;6.35;;;;;;;9.27;100.00;101310.16;6046660;23;20046;-74
2023/10/16 10:46:20;;;;;;;6.55;6.05;;;;;;;9.74;100.00;101352.91;6041186;23;20026;-74
2023/10/16 10:48:47;;;;;;;7.68;6.75;;;;;;;9.67;100.00;101340.94;6043239;23;20037;-74
2023/10/16 10:51:16;;;;;;;12.63;7.88;;;;;;;9.86;100.00;101353.34;6035641;23;20570;-73
2023/10/16 10:53:55;;;;;;;8.48;7.75;;;;;;;10.02;99.33;101328.22;5995408;23;20038;-73
2023/10/16 10:56:48;;;;;;;6.65;6.15;;;;;;;10.23;97.90;101325.66;5889357;23;20094;-73
2023/10/16 10:59:40;;;;;;;11.20;7.03;;;;;;;10.45;97.86;101318.66;6030577;23;20042;-74
2023/10/16 11:04:45;;;;;;;8.52;6.63;;;;;;;9.71;93.84;101108.44;6040078;23;20102;-73
2023/10/16 11:07:13;;;;;;;6.90;6.40;;;;;;;10.63;92.41;101232.19;6044762;23;20046;-74
2023/10/16 11:09:39;;;;;;;7.00;6.32;;;;;;;9.91;91.51;101078.75;6037760;23;20100;-74
2023/10/16 11:12:08;;;;;;;8.00;7.15;;;;;;;10.11;91.19;101114.59;5997576;23;20010;-74
2023/10/16 11:14:36;;;;;;;7.70;6.82;;;;;;;9.87;90.96;101070.16;6042553;23;20070;-73
2023/10/16 11:17:06;;;;;;;9.73;7.10;;;;;;;8.99;92.03;100982.13;6045750;23;20026;-73
2023/10/16 11:19:49;;;;;;;8.80;6.22;;;;;;;10.48;94.06;101252.91;6040553;23;20038;-73
2023/10/16 11:22:27;;;;;;;10.50;6.20;;;;;;;9.80;93.34;101139.47;6049519;23;20069;-73
2023/10/16 11:24:54;;;;;;;7.43;6.28;;;;;;;10.55;90.74;101191.38;6033119;23;20061;-73
2023/10/16 11:27:21;;;;;;;8.90;6.82;;;;;;;10.71;90.14;101178.41;6039219;23;20117;-73
2023/10/16 11:29:51;;;;;;;10.15;7.97;;;;;;;10.04;89.88;101073.81;6011439;23;20156;-73
2023/10/16 11:32:17;;;;;;;7.00;6.50;;;;;;;9.52;89.23;100969.47;6043158;23;20115;-74
2023/10/16 11:34:46;;;;;;;7.43;6.78;;;;;;;10.68;88.75;101131.28;6054385;23;20070;-72
2023/10/16 11:37:13;;;;;;;7.93;6.63;;;;;;;10.85;88.77;101148.06;6036596;23;20832;-74
2023/10/16 11:39:44;;;;;;;8.20;7.45;;;;;;;10.97;88.90;101173.75;6049980;23;20442;-72
2023/10/16 11:42:13;;;;;;;6.97;6.40;;;;;;;10.43;88.60;101067.75;6017372;23;20525;-75
2023/10/16 11:44:40;;;;;;;7.10;6.40;;;;;;;11.44;92.18;101285.44;6046242;23;20034;-71
2023/10/16 11:47:16;;;;;;;9.30;6.88;;;;;;;10.73;91.80;101146.84;6050452;23;20034;-72
2023/10/16 11:49:53;;;;;;;7.88;7.10;;;;;;;11.52;85.91;101108.03;6036228;23;20038;-71
2023/10/16 11:52:21;;;;;;;7.80;7.07;;;;;;;11.28;84.49;101031.25;6051709;23;20037;-75
2023/10/16 11:54:58;;;;;;;7.82;7.03;;;;;;;10.89;84.61;100998.16;6045116;23;20805;-73
2023/10/16 11:57:25;;;;;;;7.47;6.80;;;;;;;11.16;85.31;101066.03;6045649;23;20034;-71
2023/10/16 11:59:52;;;;;;;8.55;7.78;;;;;;;11.37;84.63;101069.41;6043511;23;20030;-74
2023/10/16 12:02:19;;;;;;;6.50;5.97;;;;;;;10.70;84.41;100977.19;6028046;23;20023;-74
2023/10/16 12:04:47;;;;;;;7.13;6.45;;;;;;;11.29;84.42;101067.13;6047577;23;20127;-75
2023/10/16 12:07:14;;;;;;;6.93;6.18;;;;;;;10.89;83.62;100978.94;6049320;23;20026;-73
2023/10/16 12:09:42;;;;;;;6.95;6.40;;;;;;;11.25;84.20;101075.25;6052478;23;20019;-73
2023/10/16 12:12:19;;;;;;;7.03;6.28;;;;;;;11.28;81.56;100988.38;6025836;23;20048;-73
2023/10/16 12:14:51;;;;;;;7.18;6.47;;;;;;;10.23;81.11;100804.53;6046299;23;20033;-73
2023/10/16 12:17:21;;;;;;;6.28;5.70;;;;;;;11.56;83.07;101101.69;6051123;23;20021;-73
2023/10/16 12:19:51;;;;;;;8.27;7.57;;;;;;;10.74;83.21;100978.78;6041517;23;20110;-73
2023/10/16 12:22:20;;;;;;;6.50;5.90;;;;;;;10.83;81.21;100911.00;6030521;23;20026;-73
2023/10/16 12:24:47;;;;;;;6.00;5.60;;;;;;;11.20;80.61;100953.78;6020573;23;20097;-73
2023/10/16 12:27:15;;;;;;;6.35;5.90;;;;;;;11.18;80.66;100970.47;6028703;23;20030;-73
2023/10/16 12:29:44;;;;;;;7.30;6.78;;;;;;;11.20;80.44;100932.75;6041552;23;20031;-72
2023/10/16 12:32:12;;;;;;;9.70;6.20;;;;;;;11.32;80.19;100963.66;6023633;23;20101;-73
2023/10/16 12:34:40;;;;;;;6.55;6.07;;;;;;;10.98;81.47;100973.22;6048506;23;20047;-73
2023/10/16 12:37:07;;;;;;;6.25;5.65;;;;;;;10.77;81.84;100960.22;6049401;23;20026;-74
2023/10/16 12:39:44;;;;;;;6.18;5.47;;;;;;;11.38;82.50;101084.22;6049216;23;20691;-73
2023/10/16 12:42:13;;;;;;;7.47;6.15;;;;;;;11.23;83.67;101082.38;6050025;23;20290;-73
2023/10/16 12:44:40;;;;;;;7.05;6.45;;;;;;;10.74;81.83;100934.16;6042187;23;20030;-73
2023/10/16 12:47:06;;;;;;;9.00;7.03;;;;;;;11.07;81.75;100995.56;6026312;23;20101;-73
2023/10/16 12:49:33;;;;;;;6.70;6.10;;;;;;;11.65;80.29;101042.56;6038407;23;20022;-73
2023/10/16 12:52:00;;;;;;;6.25;5.75;;;;;;;11.77;78.40;100991.13;6025035;23;20026;-73
2023/10/16 12:54:27;;;;;;;6.13;5.63;;;;;;;11.44;79.54;100968.28;6039982;23;20418;-73
2023/10/16 12:56:53;;;;;;;9.43;6.10;;;;;;;11.80;78.94;101006.72;6049675;23;20025;-73
2023/10/16 12:59:20;;;;;;;7.10;6.40;;;;;;;11.51;81.30;101074.81;6046062;23;20038;-74
2023/10/16 13:01:49;;;;;;;7.78;7.07;;;;;;;12.04;83.22;101203.69;6046788;23;20092;-74
2023/10/16 13:04:17;;;;;;;8.40;6.28;;;;;;;12.01;83.11;101177.53;6045946;23;20027;-73
2023/10/16 13:06:44;;;;;;;6.72;6.13;;;;;;;11.87;82.65;101137.00;6020519;23;20025;-74
2023/10/16 13:09:16;;;;;;;6.85;6.25;;;;;;;11.76;79.06;101010.44;6043475;23;20477;-73
2023/10/16 13:11:44;;;;;;;7.43;6.73;;;;;;;11.57;78.55;100965.88;6022013;23;20015;-74
2023/10/16 13:14:14;;;;;;;6.60;6.00;;;;;;;11.54;78.02;100922.19;6042290;23;20362;-73
2023/10/16 13:16:41;;;;;;;7.65;6.18;;;;;;;11.77;77.01;100949.91;6049479;23;20042;-73
2023/10/16 13:19:11;;;;;;;6.72;6.13;;;;;;;11.20;78.60;100922.25;6044782;23;20057;-74
2023/10/16 13:21:38;;;;;;;7.25;6.60;;;;;;;11.34;77.59;100891.69;6046139;23;20117;-73
2023/10/16 13:24:11;;;;;;;7.13;6.53;;;;;;;11.94;81.55;101166.47;5996090;23;20035;-74
2023/10/16 13:26:39;;;;;;;8.68;6.10;;;;;;;11.47;81.24;101068.00;6047188;23;20085;-73